TAF KTTD
KTTD 081736Z 0818/0918 26009KT P6SM -SHRA SCT015 BKN035 OVC050 FM090500 24003KT P6SM VCSH SCT020 BKN035 OVC045 FM091000 25002KT P6SM -SHRA BKN025 OVC040=
METAR KTTD
WC KTTD
WS KTTD
WV KTTD